Time;durP1;ratioP1;P1;durP2;ratioP2;P2;SDS_P1;SDS_P2;PMS_P1;PMS_P2;Temp;Humidity;BMP_temperature;BMP_pressure;BME280_temperature;BME280_humidity;BME280_pressure;Samples;Min_cycle;Max_cycle;Signal;HPM_P1;HPM_P2
2021/06/08 00:02:03;;;;;;;34.30;31.30;;;24.00;99.90;;;;;;3623877;39;20544;-62
2021/06/08 00:04:30;;;;;;;34.20;31.00;;;24.00;99.90;;;;;;3617769;39;21096;-63
2021/06/08 00:06:58;;;;;;;33.63;30.70;;;24.00;99.90;;;;;;3618621;39;20478;-63
2021/06/08 00:09:25;;;;;;;35.30;31.67;;;24.00;99.90;;;;;;3618013;39;20492;-62
2021/06/08 00:11:52;;;;;;;34.90;31.90;;;24.00;99.90;;;;;;3608361;39;20472;-63
2021/06/08 00:14:21;;;;;;;35.30;32.10;;;24.00;99.90;;;;;;3616780;39;20479;-62
2021/06/08 00:16:49;;;;;;;37.30;33.53;;;24.00;99.90;;;;;;3616168;39;20823;-63
2021/06/08 00:19:16;;;;;;;35.80;32.60;;;24.00;99.90;;;;;;3624996;39;20490;-62
2021/06/08 00:21:43;;;;;;;34.23;30.97;;;24.00;99.90;;;;;;3627242;39;20459;-62
2021/06/08 00:24:10;;;;;;;37.00;33.53;;;24.00;99.90;;;;;;3625961;39;20471;-62
2021/06/08 00:26:37;;;;;;;36.30;32.93;;;24.00;99.90;;;;;;3623706;39;20466;-62
2021/06/08 00:29:04;;;;;;;35.17;31.87;;;24.00;99.90;;;;;;3626396;39;20969;-63
2021/06/08 00:31:34;;;;;;;36.90;33.67;;;24.00;99.90;;;;;;3615931;39;20460;-62
2021/06/08 00:34:11;;;;;;;35.97;32.70;;;24.00;99.90;;;;;;3623166;39;20497;-62
2021/06/08 00:36:38;;;;;;;36.30;32.93;;;24.00;99.90;;;;;;3606249;39;20523;-63
2021/06/08 00:39:06;;;;;;;34.33;31.23;;;24.00;99.90;;;;;;3614749;39;20567;-63
2021/06/08 00:41:37;;;;;;;35.17;32.20;;;24.00;99.90;;;;;;3613586;39;20479;-63
2021/06/08 00:44:12;;;;;;;36.10;32.83;;;24.00;99.90;;;;;;3624525;39;20514;-63
2021/06/08 00:46:41;;;;;;;35.40;32.23;;;24.00;99.90;;;;;;3625783;39;20489;-63
2021/06/08 00:49:09;;;;;;;35.70;32.60;;;24.00;99.90;;;;;;3627338;39;20561;-63
2021/06/08 00:51:35;;;;;;;32.77;29.87;;;24.00;99.90;;;;;;3626504;39;20482;-63
2021/06/08 00:54:06;;;;;;;34.83;31.83;;;24.00;99.90;;;;;;3627637;39;20482;-63
2021/06/08 00:56:34;;;;;;;33.73;30.73;;;24.00;99.90;;;;;;3627218;39;20474;-64
2021/06/08 00:59:01;;;;;;;36.73;33.37;;;24.00;99.90;;;;;;3607204;39;20554;-62
2021/06/08 01:01:28;;;;;;;34.43;31.53;;;24.00;99.90;;;;;;3626108;39;20471;-62
2021/06/08 01:03:56;;;;;;;35.80;32.60;;;24.00;99.90;;;;;;3625916;39;20478;-62
2021/06/08 01:06:23;;;;;;;34.90;32.10;;;24.00;99.90;;;;;;3626848;39;20566;-62
2021/06/08 01:08:51;;;;;;;35.57;32.50;;;24.00;99.90;;;;;;3626820;39;20571;-62
2021/06/08 01:11:36;;;;;;;34.30;31.27;;;24.00;99.90;;;;;;3608821;39;20835;-62
2021/06/08 01:14:03;;;;;;;34.57;31.47;;;24.00;99.90;;;;;;3627182;39;21094;-62
2021/06/08 01:16:32;;;;;;;34.90;31.73;;;24.00;99.90;;;;;;3627131;39;20466;-62
2021/06/08 01:19:00;;;;;;;33.33;30.60;;;24.00;99.90;;;;;;3617279;39;20493;-62
2021/06/08 01:21:31;;;;;;;34.97;31.53;;;24.00;99.90;;;;;;3625566;39;20690;-62
2021/06/08 01:23:58;;;;;;;32.90;30.10;;;24.00;99.90;;;;;;3616310;39;20473;-62
2021/06/08 01:26:27;;;;;;;32.20;29.40;;;24.00;99.90;;;;;;3607329;39;20495;-62
2021/06/08 01:28:56;;;;;;;32.10;29.40;;;24.00;99.90;;;;;;3626388;39;20485;-62
2021/06/08 01:31:26;;;;;;;33.77;30.83;;;24.00;99.90;;;;;;3628346;39;20474;-62
2021/06/08 01:33:53;;;;;;;33.93;30.83;;;24.00;99.90;;;;;;3628867;39;20566;-62
2021/06/08 01:36:23;;;;;;;33.90;30.90;;;24.00;99.90;;;;;;3625634;39;20489;-62
2021/06/08 01:38:53;;;;;;;34.83;31.70;;;24.00;99.90;;;;;;3625722;39;20479;-62
2021/06/08 01:41:22;;;;;;;33.93;30.93;;;24.00;99.90;;;;;;3621883;39;20471;-62
2021/06/08 01:43:51;;;;;;;34.27;31.27;;;24.00;99.90;;;;;;3629318;39;20474;-62
2021/06/08 01:46:20;;;;;;;32.90;30.10;;;24.00;99.90;;;;;;3629441;39;20801;-62
2021/06/08 01:48:50;;;;;;;33.87;30.80;;;24.00;99.90;;;;;;3628655;39;20474;-62
2021/06/08 01:51:25;;;;;;;31.67;29.00;;;24.00;99.90;;;;;;3628893;39;20494;-62
2021/06/08 01:54:03;;;;;;;32.23;29.50;;;24.00;99.90;;;;;;3618789;39;20860;-62
2021/06/08 01:56:34;;;;;;;32.97;30.20;;;24.00;99.90;;;;;;3618141;39;20557;-62
2021/06/08 01:59:12;;;;;;;34.57;31.47;;;24.00;99.90;;;;;;3624326;39;20891;-63
2021/06/08 02:01:56;;;;;;;34.43;31.17;;;24.00;99.90;;;;;;3627037;39;20478;-62
2021/06/08 02:04:27;;;;;;;32.37;29.67;;;24.00;99.90;;;;;;3628397;39;20794;-62
2021/06/08 02:07:09;;;;;;;33.73;30.83;;;24.00;99.90;;;;;;3627857;39;20559;-62
2021/06/08 02:09:47;;;;;;;33.80;30.63;;;24.00;99.90;;;;;;3628942;39;20472;-62
2021/06/08 02:12:18;;;;;;;33.47;30.67;;;24.00;99.90;;;;;;3628549;39;20569;-62
2021/06/08 02:14:52;;;;;;;31.03;28.43;;;24.00;99.90;;;;;;3627838;39;20482;-62
2021/06/08 02:17:23;;;;;;;31.80;29.17;;;24.00;99.90;;;;;;3627532;39;20485;-62
2021/06/08 02:19:53;;;;;;;32.60;29.90;;;23.90;99.90;;;;;;3628653;39;20520;-62
2021/06/08 02:22:23;;;;;;;32.53;29.73;;;23.90;99.90;;;;;;3628169;39;20486;-62
2021/06/08 02:24:53;;;;;;;34.00;31.20;;;24.00;99.90;;;;;;3628012;39;20474;-62
2021/06/08 02:27:24;;;;;;;32.07;29.27;;;24.00;99.90;;;;;;3619012;39;20481;-62
2021/06/08 02:29:53;;;;;;;32.37;29.77;;;24.00;99.90;;;;;;3616052;39;20487;-62
2021/06/08 02:32:20;;;;;;;32.20;29.50;;;23.90;99.90;;;;;;3627157;39;20474;-62
2021/06/08 02:34:48;;;;;;;32.97;30.27;;;23.90;99.90;;;;;;3627868;39;20470;-62
2021/06/08 02:37:18;;;;;;;32.27;29.57;;;24.00;99.90;;;;;;3627223;39;20483;-62
2021/06/08 02:39:47;;;;;;;30.17;27.73;;;24.00;99.90;;;;;;3626537;39;20790;-62
2021/06/08 02:42:19;;;;;;;31.30;28.50;;;24.00;99.90;;;;;;3627996;39;20476;-62
2021/06/08 02:44:50;;;;;;;32.40;29.40;;;24.00;99.90;;;;;;3628371;39;21078;-62
2021/06/08 02:47:19;;;;;;;32.50;29.90;;;24.00;99.90;;;;;;3626253;39;20478;-62
2021/06/08 02:49:49;;;;;;;31.90;29.20;;;24.00;99.90;;;;;;3628214;39;20478;-62
2021/06/08 02:52:19;;;;;;;32.43;29.83;;;24.00;99.90;;;;;;3628937;39;20567;-62
2021/06/08 02:54:50;;;;;;;33.17;30.47;;;24.00;99.90;;;;;;3627736;39;20486;-62
2021/06/08 02:57:21;;;;;;;29.30;26.87;;;24.00;99.90;;;;;;3628185;39;20482;-62
2021/06/08 02:59:50;;;;;;;32.10;29.40;;;23.90;99.90;;;;;;3626972;39;20474;-62
2021/06/08 03:02:19;;;;;;;30.50;28.00;;;24.00;99.90;;;;;;3627860;39;20466;-62
2021/06/08 03:04:52;;;;;;;31.00;28.50;;;24.00;99.90;;;;;;3626982;39;20861;-62
2021/06/08 03:07:22;;;;;;;30.40;27.97;;;23.90;99.90;;;;;;3627208;39;20513;-62
2021/06/08 03:09:54;;;;;;;31.50;29.00;;;24.00;99.90;;;;;;3628076;39;20777;-62
2021/06/08 03:12:27;;;;;;;30.47;28.07;;;23.90;99.90;;;;;;3628383;39;20558;-62
2021/06/08 03:14:56;;;;;;;31.30;28.80;;;24.00;99.90;;;;;;3628382;39;20466;-62
2021/06/08 03:17:26;;;;;;;29.93;27.63;;;24.00;99.90;;;;;;3628510;39;20532;-62
2021/06/08 03:20:00;;;;;;;30.77;28.33;;;24.00;99.90;;;;;;3623497;39;20495;-62
2021/06/08 03:22:30;;;;;;;31.23;28.77;;;24.00;99.90;;;;;;3617577;39;20564;-62
2021/06/08 03:25:01;;;;;;;30.90;28.57;;;24.00;99.90;;;;;;3616943;39;20502;-62
2021/06/08 03:27:30;;;;;;;30.70;28.30;;;24.00;99.90;;;;;;3617061;39;20503;-62
2021/06/08 03:29:59;;;;;;;31.67;29.03;;;24.00;99.90;;;;;;3617157;39;20494;-62
2021/06/08 03:32:27;;;;;;;29.47;27.27;;;24.00;99.90;;;;;;3616814;39;20483;-62
2021/06/08 03:34:55;;;;;;;29.77;27.50;;;23.90;99.90;;;;;;3616767;39;20495;-62
2021/06/08 03:37:24;;;;;;;29.37;27.23;;;24.00;99.90;;;;;;3607084;39;20496;-62
2021/06/08 03:39:52;;;;;;;29.33;27.23;;;24.00;99.90;;;;;;3616523;39;20545;-62
2021/06/08 03:42:20;;;;;;;30.20;27.90;;;24.00;99.90;;;;;;3608425;39;20584;-62
2021/06/08 03:44:49;;;;;;;29.80;27.60;;;24.00;99.90;;;;;;3617895;39;21030;-62
2021/06/08 03:47:19;;;;;;;30.07;27.77;;;23.90;99.90;;;;;;3614064;39;20480;-62
2021/06/08 03:49:47;;;;;;;29.87;27.67;;;24.00;99.90;;;;;;3606694;39;20480;-62
2021/06/08 03:52:15;;;;;;;29.90;27.70;;;23.90;99.90;;;;;;3597725;39;20484;-62
2021/06/08 03:54:42;;;;;;;29.33;27.17;;;23.90;99.90;;;;;;3607903;39;20479;-62
2021/06/08 03:57:10;;;;;;;30.03;27.70;;;23.90;99.90;;;;;;3605954;39;20218;-62
2021/06/08 03:59:38;;;;;;;29.60;27.30;;;24.00;99.90;;;;;;3614142;39;20491;-62
2021/06/08 04:02:08;;;;;;;28.80;26.40;;;24.00;99.90;;;;;;3615831;39;20517;-62
2021/06/08 04:04:35;;;;;;;27.87;25.77;;;24.00;99.90;;;;;;3615972;39;20494;-62
2021/06/08 04:07:03;;;;;;;28.90;26.70;;;23.90;99.90;;;;;;3616284;39;20502;-62
2021/06/08 04:09:30;;;;;;;28.53;26.30;;;24.00;99.90;;;;;;3616447;39;20467;-62
2021/06/08 04:11:58;;;;;;;30.20;27.90;;;23.90;99.90;;;;;;3626118;39;20474;-62
2021/06/08 04:14:25;;;;;;;29.97;27.80;;;24.00;99.90;;;;;;3626990;39;20714;-62
2021/06/08 04:16:54;;;;;;;28.80;26.80;;;24.00;99.90;;;;;;3626606;39;20490;-62
2021/06/08 04:19:22;;;;;;;29.30;27.13;;;23.90;99.90;;;;;;3625897;39;20515;-62
2021/06/08 04:21:51;;;;;;;30.20;27.83;;;24.00;99.90;;;;;;3624802;39;20482;-62
2021/06/08 04:24:18;;;;;;;28.30;26.30;;;23.90;99.90;;;;;;3625248;39;21177;-62
2021/06/08 04:26:45;;;;;;;29.73;27.47;;;24.00;99.90;;;;;;3625431;39;20470;-62
2021/06/08 04:29:13;;;;;;;29.50;27.40;;;24.00;99.90;;;;;;3625349;39;20479;-62
2021/06/08 04:31:40;;;;;;;27.67;25.77;;;24.00;99.90;;;;;;3625543;39;20913;-62
2021/06/08 04:34:07;;;;;;;29.07;27.00;;;23.90;99.90;;;;;;3625560;39;20494;-62
2021/06/08 04:36:35;;;;;;;30.50;28.13;;;23.90;99.90;;;;;;3625586;39;20486;-62
2021/06/08 04:39:04;;;;;;;27.83;25.83;;;23.90;99.90;;;;;;3624055;39;20496;-62
2021/06/08 04:41:31;;;;;;;29.77;27.53;;;23.90;99.90;;;;;;3625150;39;20482;-62
2021/06/08 04:43:58;;;;;;;29.07;26.97;;;24.00;99.90;;;;;;3624077;39;20526;-62
2021/06/08 04:46:25;;;;;;;28.73;26.70;;;24.00;99.90;;;;;;3625239;39;20795;-62
2021/06/08 04:48:53;;;;;;;28.10;26.10;;;23.90;99.90;;;;;;3622566;39;20470;-62
2021/06/08 04:51:21;;;;;;;27.43;25.60;;;24.00;99.90;;;;;;3622723;39;20486;-62
2021/06/08 04:53:49;;;;;;;28.00;26.20;;;24.00;99.90;;;;;;3621359;39;20486;-62
2021/06/08 04:56:17;;;;;;;30.20;28.10;;;24.00;99.90;;;;;;3623864;39;20495;-62
2021/06/08 04:58:45;;;;;;;28.13;26.13;;;23.90;99.90;;;;;;3622314;39;20535;-62
2021/06/08 05:01:20;;;;;;;28.23;26.07;;;23.90;99.90;;;;;;3621763;39;20805;-62
2021/06/08 05:03:51;;;;;;;27.33;25.43;;;24.00;99.90;;;;;;3609234;39;20471;-62
2021/06/08 05:06:23;;;;;;;27.47;25.57;;;24.00;99.90;;;;;;3621530;39;20482;-62
2021/06/08 05:08:54;;;;;;;29.03;26.83;;;23.90;99.90;;;;;;3616265;39;20475;-62
2021/06/08 05:11:25;;;;;;;29.87;27.77;;;24.00;99.90;;;;;;3616801;39;20675;-62
2021/06/08 05:13:54;;;;;;;29.33;27.33;;;23.90;99.90;;;;;;3619459;39;20470;-62
2021/06/08 05:16:21;;;;;;;29.47;27.37;;;24.00;99.90;;;;;;3619825;39;20535;-62
2021/06/08 05:18:53;;;;;;;28.00;26.10;;;23.90;99.90;;;;;;3618351;39;20530;-62
2021/06/08 05:21:22;;;;;;;28.30;26.40;;;24.00;99.90;;;;;;3619364;39;20482;-62
2021/06/08 05:23:52;;;;;;;27.83;25.97;;;24.00;99.90;;;;;;3618881;39;21337;-62
2021/06/08 05:26:22;;;;;;;28.93;27.03;;;24.00;99.90;;;;;;3617528;39;20486;-62
2021/06/08 05:28:50;;;;;;;28.20;25.90;;;23.90;99.90;;;;;;3613440;39;20737;-62
2021/06/08 05:31:18;;;;;;;29.97;27.80;;;24.00;99.90;;;;;;3605427;39;20486;-62
2021/06/08 05:33:45;;;;;;;29.47;27.47;;;24.00;99.90;;;;;;3605825;39;20486;-62
2021/06/08 05:36:12;;;;;;;28.67;26.70;;;24.00;99.90;;;;;;3602932;39;20659;-62
2021/06/08 05:38:43;;;;;;;29.03;27.13;;;23.90;99.90;;;;;;3605620;39;21109;-62
2021/06/08 05:41:13;;;;;;;28.57;26.53;;;24.00;99.90;;;;;;3609694;39;21330;-62
2021/06/08 05:43:42;;;;;;;30.37;28.27;;;23.90;99.90;;;;;;3612858;39;20495;-62
2021/06/08 05:46:11;;;;;;;30.03;27.83;;;23.90;99.90;;;;;;3614340;39;20949;-62
2021/06/08 05:48:42;;;;;;;29.13;27.13;;;23.90;99.90;;;;;;3613170;39;20488;-62
2021/06/08 05:51:11;;;;;;;29.20;27.13;;;23.90;99.90;;;;;;3603120;39;20495;-62
2021/06/08 05:53:42;;;;;;;29.93;27.73;;;23.90;99.90;;;;;;3603564;39;20479;-62
2021/06/08 05:56:09;;;;;;;30.47;28.37;;;23.90;99.90;;;;;;3601659;39;20506;-62
2021/06/08 05:58:38;;;;;;;30.97;28.77;;;24.00;99.90;;;;;;3598894;39;20483;-62
2021/06/08 06:01:09;;;;;;;30.57;28.37;;;24.00;99.90;;;;;;3609012;39;20491;-62
2021/06/08 06:03:39;;;;;;;31.67;29.30;;;24.00;99.90;;;;;;3598224;39;20495;-62
2021/06/08 06:06:07;;;;;;;29.50;27.50;;;24.00;99.90;;;;;;3596611;39;20495;-62
2021/06/08 06:08:34;;;;;;;28.50;26.50;;;24.00;99.90;;;;;;3605969;39;20570;-62
2021/06/08 06:11:03;;;;;;;30.40;28.30;;;24.00;99.90;;;;;;3605451;39;20468;-62
2021/06/08 06:13:37;;;;;;;31.37;28.97;;;23.90;99.90;;;;;;3608056;39;20479;-61
2021/06/08 06:16:07;;;;;;;31.03;28.80;;;24.00;99.90;;;;;;3609154;39;21219;-60
2021/06/08 06:18:38;;;;;;;34.30;31.20;;;23.90;99.90;;;;;;3608193;39;20490;-59
2021/06/08 06:21:06;;;;;;;33.47;30.87;;;24.00;99.90;;;;;;3612000;39;20486;-61
2021/06/08 06:23:34;;;;;;;31.23;28.73;;;24.00;99.90;;;;;;3602885;39;20568;-60
2021/06/08 06:26:02;;;;;;;33.90;31.20;;;24.00;99.90;;;;;;3615847;39;20471;-60
2021/06/08 06:28:30;;;;;;;33.30;30.63;;;24.00;99.90;;;;;;3615508;39;20481;-60
2021/06/08 06:30:58;;;;;;;33.87;30.90;;;24.00;99.90;;;;;;3611836;39;20487;-61
2021/06/08 06:33:28;;;;;;;31.53;29.33;;;23.90;99.90;;;;;;3614665;39;20788;-61
2021/06/08 06:35:58;;;;;;;32.63;29.93;;;23.90;99.90;;;;;;3614494;39;21385;-61
2021/06/08 06:38:26;;;;;;;31.70;29.23;;;23.90;99.90;;;;;;3615876;39;20590;-62
2021/06/08 06:40:54;;;;;;;35.30;32.10;;;23.90;99.90;;;;;;3614915;39;20471;-61
2021/06/08 06:43:26;;;;;;;32.93;30.20;;;23.90;99.90;;;;;;3612363;39;20493;-62
2021/06/08 06:45:54;;;;;;;36.33;33.53;;;23.90;99.90;;;;;;3606816;39;20700;-64
2021/06/08 06:48:22;;;;;;;36.10;32.90;;;23.80;99.90;;;;;;3605308;39;21048;-64
2021/06/08 06:50:53;;;;;;;37.27;34.27;;;23.50;99.90;;;;;;3608310;39;20466;-64
2021/06/08 06:53:22;;;;;;;36.67;33.70;;;23.20;99.90;;;;;;3607838;39;20475;-64
2021/06/08 06:55:50;;;;;;;35.20;32.53;;;23.00;99.90;;;;;;3607375;39;20782;-63
2021/06/08 06:58:18;;;;;;;37.27;34.30;;;22.80;99.90;;;;;;3608924;39;20803;-62
2021/06/08 07:00:46;;;;;;;36.30;33.10;;;22.70;99.90;;;;;;3598845;39;20549;-62
2021/06/08 07:03:15;;;;;;;34.03;31.50;;;22.70;99.90;;;;;;3604731;39;20475;-62
2021/06/08 07:05:45;;;;;;;37.10;34.30;;;22.80;99.90;;;;;;3604887;39;20509;-62
2021/06/08 07:08:13;;;;;;;33.93;31.13;;;23.00;99.90;;;;;;3596445;39;20495;-62
2021/06/08 07:10:40;;;;;;;34.50;31.70;;;23.10;99.90;;;;;;3607595;39;21243;-63
2021/06/08 07:13:09;;;;;;;33.53;31.07;;;23.20;99.90;;;;;;3606413;39;20477;-62
2021/06/08 07:15:40;;;;;;;34.97;32.23;;;23.30;99.90;;;;;;3595939;39;20933;-62
2021/06/08 07:18:09;;;;;;;32.90;30.37;;;23.40;99.90;;;;;;3600168;39;20502;-62
2021/06/08 07:20:37;;;;;;;31.73;29.40;;;23.50;99.90;;;;;;3601943;39;20475;-61
2021/06/08 07:23:06;;;;;;;34.73;31.87;;;23.60;99.90;;;;;;3604098;39;20951;-63
2021/06/08 07:25:37;;;;;;;35.22;32.40;;;23.60;99.90;;;;;;3601471;39;20482;-64
2021/06/08 07:28:06;;;;;;;34.57;31.77;;;23.60;99.90;;;;;;3602728;39;20313;-64
2021/06/08 07:30:37;;;;;;;35.20;31.67;;;23.70;99.90;;;;;;3602234;39;20476;-63
2021/06/08 07:33:10;;;;;;;35.77;33.00;;;23.70;99.90;;;;;;3604368;39;20483;-63
2021/06/08 07:35:44;;;;;;;33.80;31.20;;;23.80;99.90;;;;;;3603656;39;20477;-64
2021/06/08 07:38:18;;;;;;;33.37;30.67;;;23.80;99.90;;;;;;3603830;39;20659;-64
2021/06/08 07:40:55;;;;;;;33.93;31.20;;;23.70;99.90;;;;;;3604030;39;20527;-64
2021/06/08 07:43:31;;;;;;;32.63;30.23;;;23.80;99.90;;;;;;3603896;39;20473;-64
2021/06/08 07:46:03;;;;;;;34.73;31.67;;;23.80;99.90;;;;;;3603873;39;20943;-63
2021/06/08 07:48:33;;;;;;;34.67;31.77;;;23.80;99.90;;;;;;3606196;39;20470;-63
2021/06/08 07:51:05;;;;;;;36.37;33.27;;;23.80;99.90;;;;;;3605408;39;20541;-61
2021/06/08 07:53:32;;;;;;;34.03;31.43;;;23.80;99.90;;;;;;3605535;39;20951;-61
2021/06/08 07:56:01;;;;;;;36.17;33.13;;;23.80;99.90;;;;;;3602284;39;20484;-61
2021/06/08 07:58:30;;;;;;;35.17;32.30;;;23.90;99.90;;;;;;3605356;39;20481;-61
2021/06/08 08:00:59;;;;;;;34.77;31.77;;;23.90;99.90;;;;;;3604526;39;20470;-61
2021/06/08 08:03:26;;;;;;;32.53;30.00;;;23.90;99.90;;;;;;3599473;39;20852;-61
2021/06/08 08:05:58;;;;;;;36.93;33.87;;;23.90;99.90;;;;;;3600608;39;20505;-62
2021/06/08 08:08:26;;;;;;;34.23;31.70;;;23.90;99.90;;;;;;3594969;39;20491;-62
2021/06/08 08:10:54;;;;;;;35.50;32.90;;;23.90;99.90;;;;;;3593771;39;20476;-61
2021/06/08 08:13:26;;;;;;;37.77;34.70;;;23.90;99.90;;;;;;3594568;39;20491;-62
2021/06/08 08:15:54;;;;;;;34.40;31.90;;;23.90;99.90;;;;;;3598827;39;20602;-62
2021/06/08 08:18:23;;;;;;;35.70;33.00;;;23.90;99.90;;;;;;3595477;39;20502;-62
2021/06/08 08:20:53;;;;;;;35.13;32.13;;;23.90;99.90;;;;;;3593023;39;20479;-62
2021/06/08 08:23:20;;;;;;;34.43;31.93;;;23.90;99.90;;;;;;3592862;39;20482;-62
2021/06/08 08:25:48;;;;;;;36.37;33.47;;;23.90;99.90;;;;;;3601379;39;20531;-60
2021/06/08 08:28:15;;;;;;;35.63;33.03;;;23.90;99.90;;;;;;3597548;39;20523;-62
2021/06/08 08:30:45;;;;;;;36.03;33.43;;;23.90;99.90;;;;;;3587044;39;20472;-62
2021/06/08 08:33:12;;;;;;;35.03;32.23;;;23.90;99.90;;;;;;3596648;39;20642;-62
2021/06/08 08:35:41;;;;;;;35.70;32.90;;;23.90;99.90;;;;;;3596621;39;20953;-61
2021/06/08 08:38:08;;;;;;;36.43;33.70;;;23.90;99.90;;;;;;3601594;39;20490;-62
2021/06/08 08:40:36;;;;;;;37.00;34.10;;;23.90;99.90;;;;;;3602820;39;21049;-62
2021/06/08 08:43:04;;;;;;;35.50;32.60;;;23.90;99.90;;;;;;3605970;39;20467;-60
2021/06/08 08:45:32;;;;;;;35.03;32.33;;;23.90;99.90;;;;;;3595079;39;20479;-61
2021/06/08 08:48:03;;;;;;;34.60;32.00;;;23.90;99.90;;;;;;3600950;39;20605;-60
2021/06/08 08:50:32;;;;;;;36.53;33.63;;;23.90;99.90;;;;;;3601646;39;20486;-60
2021/06/08 08:53:02;;;;;;;36.73;33.80;;;23.90;99.90;;;;;;3603249;39;20491;-61
2021/06/08 08:55:33;;;;;;;36.70;33.60;;;23.90;99.90;;;;;;3602501;39;20490;-62
2021/06/08 08:58:03;;;;;;;38.03;35.07;;;23.90;99.90;;;;;;3604793;39;20478;-61
2021/06/08 09:00:33;;;;;;;37.10;34.40;;;23.90;99.90;;;;;;3602193;39;20480;-63
2021/06/08 09:03:04;;;;;;;37.20;34.10;;;23.90;99.90;;;;;;3594226;39;20491;-64
2021/06/08 09:05:35;;;;;;;37.27;34.57;;;23.90;99.90;;;;;;3593456;39;20513;-64
2021/06/08 09:08:05;;;;;;;35.10;32.27;;;23.90;99.90;;;;;;3591637;39;20517;-63
2021/06/08 09:10:34;;;;;;;35.13;32.43;;;23.90;99.90;;;;;;3593120;39;20486;-62
2021/06/08 09:13:01;;;;;;;38.03;35.00;;;23.90;99.90;;;;;;3586795;39;20800;-63
2021/06/08 09:15:29;;;;;;;36.30;33.60;;;23.90;99.90;;;;;;3574700;39;21317;-62
2021/06/08 09:17:58;;;;;;;38.13;34.77;;;23.90;99.90;;;;;;3598670;39;20494;-61
2021/06/08 09:20:28;;;;;;;36.80;33.87;;;23.90;99.90;;;;;;3599562;39;20603;-62
2021/06/08 09:22:59;;;;;;;37.90;34.40;;;24.00;99.90;;;;;;3599565;39;21276;-63
2021/06/08 09:25:45;;;;;;;38.73;35.60;;;23.90;99.90;;;;;;3602222;39;20528;-63
2021/06/08 09:28:30;;;;;;;37.00;34.13;;;23.90;99.90;;;;;;3600485;39;20494;-63
2021/06/08 09:31:04;;;;;;;40.10;36.87;;;24.00;99.90;;;;;;3600305;39;20476;-62
2021/06/08 09:33:33;;;;;;;39.77;36.70;;;24.00;99.90;;;;;;3600955;39;20502;-63
2021/06/08 09:36:03;;;;;;;39.37;36.20;;;23.90;99.90;;;;;;3602296;39;20872;-61
2021/06/08 09:38:51;;;;;;;39.07;35.87;;;24.00;99.90;;;;;;3601660;39;20494;-62
2021/06/08 09:41:24;;;;;;;38.13;34.90;;;23.90;99.90;;;;;;3601365;39;20860;-61
2021/06/08 09:43:57;;;;;;;41.13;37.80;;;24.00;99.90;;;;;;3602447;39;20483;-61
2021/06/08 09:46:31;;;;;;;39.10;36.00;;;24.00;99.90;;;;;;3595098;39;20486;-62
2021/06/08 09:49:01;;;;;;;39.33;36.23;;;23.90;99.90;;;;;;3594774;39;20478;-62
2021/06/08 09:51:50;;;;;;;39.70;36.07;;;23.90;99.90;;;;;;3595661;39;20552;-60
2021/06/08 09:54:30;;;;;;;38.80;35.80;;;23.90;99.90;;;;;;3595106;39;20490;-61
2021/06/08 09:57:20;;;;;;;41.43;38.27;;;24.00;99.90;;;;;;3598259;39;20466;-60
2021/06/08 09:59:51;;;;;;;40.77;37.30;;;23.90;99.90;;;;;;3604923;39;20486;-62
2021/06/08 10:02:32;;;;;;;38.53;35.27;;;23.90;99.90;;;;;;3601989;39;20485;-63
2021/06/08 10:05:18;;;;;;;39.37;36.27;;;24.00;99.90;;;;;;3600879;39;20474;-62
2021/06/08 10:07:47;;;;;;;39.67;36.67;;;24.00;99.90;;;;;;3604473;39;20521;-61
2021/06/08 10:10:16;;;;;;;37.47;34.67;;;23.90;99.90;;;;;;3594849;39;20489;-62
2021/06/08 10:12:59;;;;;;;42.43;38.03;;;23.90;99.90;;;;;;3606564;39;20486;-62
2021/06/08 10:15:29;;;;;;;41.10;37.60;;;23.90;99.90;;;;;;3607119;39;20489;-62
2021/06/08 10:17:58;;;;;;;39.97;36.80;;;24.00;99.90;;;;;;3606060;39;20494;-62
2021/06/08 10:20:29;;;;;;;38.73;35.63;;;24.00;99.90;;;;;;3605148;39;20874;-62
2021/06/08 10:23:02;;;;;;;39.53;36.53;;;23.90;99.90;;;;;;3603336;39;20543;-62
2021/06/08 10:25:30;;;;;;;41.00;37.60;;;24.00;99.90;;;;;;3596037;39;20472;-61
2021/06/08 10:27:58;;;;;;;39.67;36.37;;;24.00;99.90;;;;;;3591882;39;20501;-62
2021/06/08 10:30:25;;;;;;;39.77;36.67;;;24.00;99.90;;;;;;3599475;39;20515;-61
2021/06/08 10:32:52;;;;;;;42.23;38.43;;;24.00;99.90;;;;;;3605855;39;20478;-61
2021/06/08 10:35:21;;;;;;;43.30;39.53;;;24.00;99.90;;;;;;3602966;39;20799;-61
2021/06/08 10:37:48;;;;;;;40.83;37.43;;;24.00;99.90;;;;;;3605105;39;20506;-61
2021/06/08 10:40:20;;;;;;;41.47;38.13;;;24.00;99.90;;;;;;3596165;39;20763;-61
2021/06/08 10:42:48;;;;;;;42.03;38.70;;;24.00;99.90;;;;;;3593159;39;20944;-61
2021/06/08 10:45:15;;;;;;;38.97;36.10;;;24.00;99.90;;;;;;3592752;39;20947;-61
2021/06/08 10:47:46;;;;;;;42.53;38.60;;;24.00;99.90;;;;;;3575430;39;20932;-61
2021/06/08 10:50:32;;;;;;;40.43;37.23;;;24.00;99.90;;;;;;3597516;39;20628;-61
2021/06/08 10:53:00;;;;;;;44.53;40.63;;;24.00;99.90;;;;;;3605265;39;21303;-61
2021/06/08 10:55:35;;;;;;;42.93;38.70;;;24.00;99.90;;;;;;3604627;39;20486;-61
2021/06/08 10:58:02;;;;;;;43.83;40.23;;;24.00;99.90;;;;;;3591744;39;20571;-61
2021/06/08 11:00:44;;;;;;;46.23;42.20;;;24.00;99.90;;;;;;3588651;39;20584;-61
2021/06/08 11:03:12;;;;;;;47.23;43.23;;;24.00;99.90;;;;;;3576554;39;20519;-61
2021/06/08 11:05:47;;;;;;;48.43;44.23;;;24.00;99.90;;;;;;3588981;39;21116;-61
2021/06/08 11:08:16;;;;;;;50.00;45.47;;;24.00;99.90;;;;;;3602775;39;20496;-61
2021/06/08 11:10:57;;;;;;;51.13;47.03;;;24.00;99.90;;;;;;3603391;39;20507;-60
2021/06/08 11:13:53;;;;;;;50.00;45.87;;;24.00;99.90;;;;;;3605598;39;20555;-61
2021/06/08 11:16:34;;;;;;;49.03;44.63;;;24.00;99.90;;;;;;3606019;39;20486;-61
2021/06/08 11:19:03;;;;;;;48.37;44.17;;;24.00;99.90;;;;;;3597732;39;20483;-61
2021/06/08 11:21:33;;;;;;;48.40;44.40;;;24.00;99.90;;;;;;3602996;39;20582;-61
2021/06/08 11:24:01;;;;;;;49.67;45.67;;;24.00;99.90;;;;;;3601660;39;20486;-61
2021/06/08 11:26:51;;;;;;;49.13;44.83;;;24.00;99.90;;;;;;3608415;39;20516;-61
2021/06/08 11:29:46;;;;;;;50.77;46.10;;;24.00;99.90;;;;;;3603440;39;20482;-60
2021/06/08 11:32:46;;;;;;;47.63;43.50;;;24.00;99.90;;;;;;3589774;39;20494;-61
2021/06/08 11:35:17;;;;;;;46.77;43.07;;;24.00;99.90;;;;;;3596758;39;20930;-61
2021/06/08 11:38:06;;;;;;;47.83;43.80;;;24.10;99.90;;;;;;3592155;39;20817;-63
2021/06/08 11:40:56;;;;;;;46.97;43.10;;;24.10;99.90;;;;;;3596893;39;20486;-63
2021/06/08 11:43:59;;;;;;;47.53;43.43;;;24.00;99.90;;;;;;3594821;39;20929;-61
2021/06/08 11:46:53;;;;;;;48.73;44.63;;;24.10;99.90;;;;;;3591493;39;20514;-61
2021/06/08 11:49:22;;;;;;;47.17;43.30;;;24.10;99.90;;;;;;3597971;39;20505;-61
2021/06/08 11:52:09;;;;;;;48.90;44.40;;;24.10;99.90;;;;;;3606818;39;20477;-61
2021/06/08 11:54:46;;;;;;;45.63;41.83;;;24.10;99.90;;;;;;3606846;39;20506;-59
2021/06/08 11:57:31;;;;;;;46.03;42.23;;;24.10;99.90;;;;;;3605507;39;20764;-60
2021/06/08 11:59:59;;;;;;;47.13;43.03;;;24.10;99.90;;;;;;3601773;39;20728;-60
2021/06/08 12:02:36;;;;;;;48.23;44.10;;;24.10;99.90;;;;;;3600849;39;20967;-61
2021/06/08 12:05:16;;;;;;;49.10;44.47;;;24.10;99.90;;;;;;3597912;39;20491;-61
2021/06/08 12:07:46;;;;;;;46.47;42.60;;;24.10;99.90;;;;;;3599171;39;21134;-61
2021/06/08 12:10:30;;;;;;;46.30;42.50;;;24.10;99.90;;;;;;3598128;39;20479;-61
2021/06/08 12:12:58;;;;;;;47.30;43.10;;;24.10;99.90;;;;;;3594872;39;20483;-61
2021/06/08 12:15:27;;;;;;;47.00;43.07;;;24.10;99.90;;;;;;3607629;39;20563;-61
2021/06/08 12:18:01;;;;;;;47.47;43.30;;;24.10;99.90;;;;;;3611595;39;20479;-62
2021/06/08 12:20:29;;;;;;;49.87;45.23;;;24.10;99.90;;;;;;3610730;39;20495;-61
2021/06/08 12:22:56;;;;;;;46.50;42.63;;;24.10;99.90;;;;;;3612271;39;20506;-62
2021/06/08 12:25:25;;;;;;;48.73;44.50;;;24.10;99.90;;;;;;3597073;39;20872;-60
2021/06/08 12:27:52;;;;;;;47.40;43.60;;;24.10;99.90;;;;;;3602336;39;20567;-61
2021/06/08 12:30:22;;;;;;;49.20;44.90;;;24.10;99.90;;;;;;3606273;39;20490;-60
2021/06/08 12:32:53;;;;;;;48.00;43.60;;;24.10;99.90;;;;;;3601581;39;20781;-59
2021/06/08 12:35:29;;;;;;;51.63;42.60;;;24.10;99.90;;;;;;3606820;39;20486;-60
2021/06/08 12:38:08;;;;;;;47.93;43.83;;;24.10;99.90;;;;;;3606098;39;21321;-60
2021/06/08 12:40:35;;;;;;;46.37;42.27;;;24.10;99.90;;;;;;3604675;39;20918;-60
2021/06/08 12:43:04;;;;;;;46.47;42.23;;;24.10;99.90;;;;;;3604075;39;20488;-60
2021/06/08 12:45:32;;;;;;;46.20;42.27;;;24.10;99.90;;;;;;3604108;39;20498;-60
2021/06/08 12:48:01;;;;;;;48.10;43.87;;;24.10;99.90;;;;;;3605086;39;20478;-61